LPPSLSZA

Guest
Details From LPPS - Porto Santo
To LSZA - Lugano
Flight Number -
Tags Generated
Created
Modified
Stats Distance 1,394 nm / 2,582 km
Max Altitude 0 ft / 0 m
Waypoints 7
Social Downloads 1
Likes 0
Share VATSIM

Download

Looking for another format? Having issues loading an existing format? Contact us
Advertisement - Login to hide

Notes

Generated

Route

LPPS TROIA KASTA SURCO NAKIS IXORA LSZA

ID Type Via Altitude Latitude Longitude Leg Dist Tot Dist Heading (true) Name
O LPPS APT - 0 ft / 0 m 33.08696˚ -16.35048˚ - 0 nm - -
TROIA FIX - 0 ft / 0 m 38.07333˚ -8.87917˚ 471 nm 471 nm 48° / 53° -
KASTA FIX - 0 ft / 0 m 40.19233˚ -5.03436˚ 219 nm 691 nm 53° / 56° -
SURCO FIX - 0 ft / 0 m 42.32882˚ -0.56794˚ 238 nm 930 nm 56° / 59° -
NAKIS FIX - 0 ft / 0 m 44.32258˚ 4.09808˚ 236 nm 1166 nm 58° / 61° -
IXORA FIX - 0 ft / 0 m 45.83667˚ 8.58889˚ 210 nm 1377 nm 63° / 66° -
O LSZA APT - 0 ft / 0 m 45.99853˚ 8.90776˚ 16 nm 1394 nm 54° / 54° Lugano

Altitude Profile

Advertisement - Login to hide

Weather


0- 5 10 15 20 25 30 35+ Temperature / ° C

Clouds and Precipitation
Forecast for 2017-12-18 12:00 UTC. Updated 19 minutes ago

Ground ~20,000 ft ~40,000 ft Winds

LPPS

Details ICAO LPPS (PXO)
Name Porto Santo
Region Portugal
Timezone Atlantic/Madeira (UTC+0.0)
Stats Elevation 340 ft / 104 m (AMSL)
Location 33.073413° -16.349946°
Runways 1
Magnetic Variation 4.818° W

METAR

LPPS 180930Z 08013KT 9999 SCT015 BKN030 17/09 Q1030

Decode

TAF

TAF LPPS 180500Z 1806/1912 07013KT 9999 SCT015 BKN030

Decode

Departure Runways

ID Width Length Bearing (true) Bearing (mag) Surface Threshold Offset Overrun Length
18 148 ft / 45 m 9,890 ft / 3,014 m 178.11° 182.93° Asphalt 0 ft / 0 m 0 ft / 0 m
36 148 ft / 45 m 9,890 ft / 3,014 m 358.12° 2.94° Asphalt 0 ft / 0 m 499 ft / 152 m

LSZA

Details ICAO LSZA (LUG)
Name Lugano
Region Switzerland
Timezone Europe/Zurich (UTC+1.0)
Stats Elevation 915 ft / 279 m (AMSL)
Location 46.004275° 8.910579°
Runways 1
Magnetic Variation 2.425° E

METAR

LSZA 180920Z VRB01KT 9999 SCT080 BKN100 00/M05 Q1023 NOSIG

Decode

TAF

Not found

Destination Runways

ID Width Length Bearing (true) Bearing (mag) Surface Threshold Offset Overrun Length
01 98 ft / 30 m 4,430 ft / 1,350 m 18.79° 16.37° Asphalt 361 ft / 110 m 0 ft / 0 m
19 98 ft / 30 m 4,430 ft / 1,350 m 198.79° 196.37° Asphalt 673 ft / 205 m 0 ft / 0 m

Approach Navaids

Runway Type Ident Frequency Range Bearing (true) Bearing (mag) Slope Elevation
01 Localiser ILU 111.50 MHz 18 nm / 33 km 18.79° 16.37° - 928 ft / 283 m (AMSL)
01 Glidescope ILU 111.50 MHz 10 nm / 19 km 19.99° 17.57° 6.00° 928 ft / 283 m (AMSL)
01 DME ILU 111.50 MHz 18 nm / 33 km - - - 928 ft / 283 m (AMSL)